Terminal Aerodrome Forecast
Issued by NWS Charleston, WV

Current Version | Previous Version | Graphics & Text | Print | Product List | Glossary On
Versions: 1 2 3 4 5 6 7 8 9 10 11 12 13 14 15 16 17 18 19 20 21 22 23 24
000
FTUS41 KRLX 230200 AAA
TAFBKW
TAF AMD
KBKW 230236Z 2303/2324 00000KT P6SM BKN050
     FM231200 19004KT P6SM SCT035
     FM231600 22008KT P6SM SCT035
     FM231700 24009KT P6SM VCTS SCT035CB
     FM231900 29009KT P6SM VCTS BKN035CB
     FM232200 30009KT 5SM TSRA BR BKN040CB=

USA.gov is the U.S. government's official web portal to all federal, state and local government web resources and services.